Time;durP1;ratioP1;P1;durP2;ratioP2;P2;SDS_P1;SDS_P2;PMS_P1;PMS_P2;Temp;Humidity;BMP_temperature;BMP_pressure;BME280_temperature;BME280_humidity;BME280_pressure;Samples;Min_cycle;Max_cycle;Signal;HPM_P1;HPM_P2
2022/06/16 00:03:08;;;;;;;;;;;;;;;15.73;80.63;100307.89;2671541;87;20647;-87
2022/06/16 00:07:09;;;;;;;;;;;;;;;15.70;80.50;100305.50;2675948;85;20095;-87
2022/06/16 00:11:16;;;;;;;;;;;;;;;15.77;80.07;100298.52;2677900;86;20179;-86
2022/06/16 00:15:21;;;;;;;;;;;;;;;15.79;80.47;100303.70;2641834;86;20138;-86
2022/06/16 00:19:22;;;;;;;;;;;;;;;15.83;80.24;100293.02;2678583;86;20545;-87
2022/06/16 00:23:26;;;;;;;;;;;;;;;15.84;80.67;100296.87;2669501;86;20140;-87
2022/06/16 00:27:28;;;;;;;;;;;;;;;15.75;81.45;100295.64;2679084;86;20116;-86
2022/06/16 00:31:29;;;;;;;;;;;;;;;15.68;81.12;100294.09;2702836;86;20459;-87
2022/06/16 00:35:30;;;;;;;;;;;;;;;15.68;81.11;100296.78;2688063;86;20152;-87
2022/06/16 00:39:31;;;;;;;;;;;;;;;15.71;81.20;100287.92;2673899;86;20160;-87
2022/06/16 00:43:32;;;;;;;;;;;;;;;15.51;82.15;100287.30;2676490;85;20189;-87
2022/06/16 00:47:33;;;;;;;;;;;;;;;15.36;82.82;100287.55;2660860;87;20123;-86
2022/06/16 00:51:40;;;;;;;;;;;;;;;15.24;83.46;100289.14;2670451;86;20186;-87
2022/06/16 00:55:42;;;;;;;;;;;;;;;15.23;83.35;100287.45;2667273;86;20149;-87
2022/06/16 00:59:43;;;;;;;;;;;;;;;15.23;83.28;100278.08;2686171;86;20186;-87
2022/06/16 01:08:04;;;;;;;;;;;;;;;15.15;83.55;100269.99;2686713;86;20108;-87
2022/06/16 01:16:45;;;;;;;;;;;;;;;15.06;84.41;100267.75;2686001;84;20151;-87
2022/06/16 01:21:18;;;;;;;;;;;;;;;14.85;85.77;100268.07;2671212;86;20150;-87
2022/06/16 01:25:26;;;;;;;;;;;;;;;14.71;86.54;100263.59;2688899;86;20136;-86
2022/06/16 01:29:47;;;;;;;;;;;;;;;14.65;86.97;100266.86;2680994;86;20630;-87
2022/06/16 01:33:55;;;;;;;;;;;;;;;14.55;87.91;100263.44;2652602;87;20157;-87
2022/06/16 01:38:03;;;;;;;;;;;;;;;14.48;87.94;100263.67;2657582;87;20139;-87
2022/06/16 01:42:08;;;;;;;;;;;;;;;14.39;88.65;100262.27;2697298;86;20099;-87
2022/06/16 01:46:21;;;;;;;;;;;;;;;14.32;89.32;100264.36;2709857;86;20168;-86
2022/06/16 01:50:32;;;;;;;;;;;;;;;14.26;89.67;100268.47;2677623;86;20146;-86
2022/06/16 01:54:41;;;;;;;;;;;;;;;14.28;89.67;100261.13;2684824;86;20169;-86
2022/06/16 01:58:46;;;;;;;;;;;;;;;14.37;89.65;100261.58;2694492;86;20155;-86
2022/06/16 02:02:51;;;;;;;;;;;;;;;14.49;89.31;100265.36;2658844;86;20202;-86
2022/06/16 02:06:55;;;;;;;;;;;;;;;14.48;89.35;100260.52;2697110;86;20441;-87
2022/06/16 02:11:03;;;;;;;;;;;;;;;14.42;89.72;100259.77;2650937;86;20213;-87
2022/06/16 02:15:06;;;;;;;;;;;;;;;14.33;89.90;100264.19;2699289;84;20444;-86
2022/06/16 02:19:11;;;;;;;;;;;;;;;14.33;90.02;100260.17;2709854;86;20114;-86
2022/06/16 02:23:14;;;;;;;;;;;;;;;14.42;89.26;100259.77;2684210;86;20236;-86
2022/06/16 02:27:15;;;;;;;;;;;;;;;14.37;89.52;100258.91;2667718;86;20154;-87
2022/06/16 02:31:46;;;;;;;;;;;;;;;14.25;90.15;100262.78;2675945;86;20532;-86
2022/06/16 02:35:50;;;;;;;;;;;;;;;14.13;90.90;100267.50;2673775;86;20533;-86
2022/06/16 02:40:16;;;;;;;;;;;;;;;14.07;91.43;100262.24;2677563;85;20167;-87
2022/06/16 02:44:31;;;;;;;;;;;;;;;14.10;91.25;100261.94;2672992;86;20101;-87
2022/06/16 02:48:48;;;;;;;;;;;;;;;14.12;91.63;100263.14;2689842;86;20167;-87
2022/06/16 02:53:11;;;;;;;;;;;;;;;14.12;91.83;100258.61;2682413;85;20150;-87
2022/06/16 02:57:25;;;;;;;;;;;;;;;14.13;92.06;100254.95;2641242;86;20441;-87
2022/06/16 03:01:26;;;;;;;;;;;;;;;14.19;91.94;100261.54;2664999;86;20213;-87
2022/06/16 03:05:27;;;;;;;;;;;;;;;14.34;91.17;100259.18;2691054;86;20191;-86
2022/06/16 03:09:28;;;;;;;;;;;;;;;14.55;90.43;100260.75;2686666;86;20217;-86
2022/06/16 03:13:31;;;;;;;;;;;;;;;14.67;89.50;100256.84;2687220;86;20164;-86
2022/06/16 03:17:32;;;;;;;;;;;;;;;14.71;89.50;100256.90;2699911;86;20447;-86
2022/06/16 03:21:33;;;;;;;;;;;;;;;14.70;89.82;100252.51;2709678;86;20106;-86
2022/06/16 03:25:35;;;;;;;;;;;;;;;14.62;90.49;100251.11;2649031;87;20140;-86
2022/06/16 03:29:36;;;;;;;;;;;;;;;14.59;91.00;100252.76;2681183;86;20265;-86
2022/06/16 03:33:37;;;;;;;;;;;;;;;14.57;91.54;100259.59;2664201;86;20844;-86
2022/06/16 03:37:40;;;;;;;;;;;;;;;14.62;91.58;100251.11;2632735;87;20143;-86
2022/06/16 03:41:41;;;;;;;;;;;;;;;14.73;91.16;100242.52;2662365;87;20216;-86
2022/06/16 03:45:42;;;;;;;;;;;;;;;14.80;90.66;100247.62;2697351;85;20238;-86
2022/06/16 03:49:43;;;;;;;;;;;;;;;14.91;90.33;100243.85;2675233;84;20473;-87
2022/06/16 03:53:44;;;;;;;;;;;;;;;14.93;90.22;100240.00;2666932;85;20160;-86
2022/06/16 03:57:46;;;;;;;;;;;;;;;14.98;90.23;100243.56;2669858;86;20490;-86
2022/06/16 04:01:48;;;;;;;;;;;;;;;15.09;90.15;100239.30;2680482;86;20127;-86
2022/06/16 04:05:49;;;;;;;;;;;;;;;15.30;89.79;100238.10;2705099;85;20129;-86
2022/06/16 04:09:50;;;;;;;;;;;;;;;15.54;88.94;100229.37;2702105;85;20154;-86
2022/06/16 04:13:52;;;;;;;;;;;;;;;15.67;88.10;100231.59;2684934;86;20154;-86
2022/06/16 04:17:53;;;;;;;;;;;;;;;15.79;88.10;100225.45;2695350;86;20215;-86
2022/06/16 04:21:54;;;;;;;;;;;;;;;16.16;87.81;100230.63;2670172;87;20576;-87
2022/06/16 04:25:55;;;;;;;;;;;;;;;17.00;88.32;100226.54;2683858;86;20171;-86
2022/06/16 04:29:56;;;;;;;;;;;;;;;17.95;83.69;100205.23;2679433;86;20118;-86
2022/06/16 04:33:58;;;;;;;;;;;;;;;18.79;79.58;100207.70;2617789;87;20431;-86
2022/06/16 04:37:59;;;;;;;;;;;;;;;19.34;76.59;100208.89;2689910;85;20283;-87
2022/06/16 04:42:00;;;;;;;;;;;;;;;19.12;75.52;100207.43;2675972;85;20113;-87
2022/06/16 04:46:04;;;;;;;;;;;;;;;19.15;77.23;100198.97;2685264;86;20720;-86
2022/06/16 04:50:06;;;;;;;;;;;;;;;19.31;75.57;100198.48;2689664;86;20112;-86
2022/06/16 04:54:07;;;;;;;;;;;;;;;19.08;76.68;100191.30;2668961;86;20145;-86
2022/06/16 04:58:08;;;;;;;;;;;;;;;19.38;78.10;100178.67;2698698;86;20160;-86
2022/06/16 05:02:09;;;;;;;;;;;;;;;20.01;77.47;100180.06;2665669;86;20151;-87
2022/06/16 05:06:10;;;;;;;;;;;;;;;20.56;73.40;100180.92;2681263;86;20192;-87
2022/06/16 05:10:11;;;;;;;;;;;;;;;20.54;73.33;100187.05;2695710;86;20268;-87
2022/06/16 05:14:12;;;;;;;;;;;;;;;20.54;72.55;100173.03;2656664;86;20145;-85
2022/06/16 05:18:14;;;;;;;;;;;;;;;20.71;73.19;100165.16;2681193;84;20099;-86
2022/06/16 05:22:15;;;;;;;;;;;;;;;20.85;72.43;100171.52;2681924;86;20110;-86
2022/06/16 05:26:16;;;;;;;;;;;;;;;20.80;72.31;100172.10;2694206;85;20230;-86
2022/06/16 05:30:17;;;;;;;;;;;;;;;20.78;72.21;100170.08;2704594;86;20089;-86
2022/06/16 05:34:18;;;;;;;;;;;;;;;21.09;72.25;100173.77;2693979;86;20529;-86
2022/06/16 05:38:19;;;;;;;;;;;;;;;21.51;72.27;100179.72;2677034;86;20170;-86
2022/06/16 05:42:21;;;;;;;;;;;;;;;22.13;72.30;100178.93;2690243;85;20159;-86
2022/06/16 05:46:23;;;;;;;;;;;;;;;22.91;69.97;100183.81;2688046;86;20146;-86
2022/06/16 05:50:25;;;;;;;;;;;;;;;24.01;66.53;100173.27;2702270;86;20118;-86
2022/06/16 05:54:27;;;;;;;;;;;;;;;24.79;63.69;100165.83;2582678;89;20121;-86
2022/06/16 05:58:29;;;;;;;;;;;;;;;25.06;61.97;100163.39;2666155;86;20160;-85
2022/06/16 06:02:30;;;;;;;;;;;;;;;25.20;62.39;100164.08;2686209;85;20231;-85
2022/06/16 06:06:31;;;;;;;;;;;;;;;25.03;61.93;100163.30;2672423;86;20244;-86
2022/06/16 06:19:31;;;;;;;;;;;;;;;24.68;61.76;100160.56;2646107;85;20095;-87
2022/06/16 06:23:29;;;;;;;;;;;;;;;24.98;61.72;100166.41;2661269;85;20204;-86
2022/06/16 06:27:33;;;;;;;;;;;;;;;25.39;61.83;100167.09;2670690;86;20142;-87
2022/06/16 06:31:35;;;;;;;;;;;;;;;25.68;60.54;100165.22;2664646;87;20167;-87
2022/06/16 06:35:35;;;;;;;;;;;;;;;26.15;60.20;100158.30;2700687;85;20217;-86
2022/06/16 06:39:37;;;;;;;;;;;;;;;26.52;58.32;100162.24;2677496;85;20170;-85
2022/06/16 06:43:38;;;;;;;;;;;;;;;27.11;58.02;100157.35;2685269;86;20191;-87
2022/06/16 06:47:39;;;;;;;;;;;;;;;27.45;57.29;100154.80;2690150;86;20190;-87
2022/06/16 06:51:40;;;;;;;;;;;;;;;27.78;56.64;100164.23;2679263;85;21143;-88
2022/06/16 06:55:43;;;;;;;;;;;;;;;28.43;55.57;100166.79;2630053;86;20156;-86
2022/06/16 06:59:45;;;;;;;;;;;;;;;28.98;53.82;100160.80;2660442;86;20114;-86
2022/06/16 07:03:47;;;;;;;;;;;;;;;29.06;53.28;100163.09;2653199;86;20147;-87
2022/06/16 07:07:48;;;;;;;;;;;;;;;28.82;53.19;100166.05;2653144;86;20126;-84
2022/06/16 07:11:49;;;;;;;;;;;;;;;28.53;53.51;100168.86;2674923;87;20128;-87
2022/06/16 07:15:50;;;;;;;;;;;;;;;28.31;53.96;100162.77;2694312;86;20493;-87
2022/06/16 07:19:51;;;;;;;;;;;;;;;28.20;54.18;100159.55;2683517;85;20193;-87
2022/06/16 07:23:53;;;;;;;;;;;;;;;28.05;55.01;100149.96;2696508;86;20127;-87
2022/06/16 07:27:54;;;;;;;;;;;;;;;28.00;55.33;100143.56;2670380;85;20092;-86
2022/06/16 07:31:55;;;;;;;;;;;;;;;28.03;54.87;100146.65;2689698;85;20117;-86
2022/06/16 07:35:57;;;;;;;;;;;;;;;28.27;55.04;100160.77;2681748;85;20168;-87
2022/06/16 07:39:58;;;;;;;;;;;;;;;28.45;53.62;100156.95;2681624;85;20172;-87
2022/06/16 07:44:00;;;;;;;;;;;;;;;28.88;54.80;100161.48;2687151;86;20167;-88
2022/06/16 07:48:03;;;;;;;;;;;;;;;28.99;53.43;100166.03;2691394;85;20127;-88
2022/06/16 07:52:04;;;;;;;;;;;;;;;29.46;52.82;100162.00;2622188;86;20140;-88
2022/06/16 07:56:05;;;;;;;;;;;;;;;29.76;51.65;100167.56;2667499;86;20233;-87
2022/06/16 08:00:07;;;;;;;;;;;;;;;29.88;50.99;100170.71;2670033;86;20132;-87
2022/06/16 08:04:08;;;;;;;;;;;;;;;30.16;50.54;100163.33;2633669;87;20174;-88
2022/06/16 08:08:09;;;;;;;;;;;;;;;30.40;49.26;100156.96;2616529;88;20168;-87
2022/06/16 08:12:11;;;;;;;;;;;;;;;30.55;45.53;100149.38;2674530;86;20234;-88
2022/06/16 08:16:12;;;;;;;;;;;;;;;30.76;46.88;100139.95;2641446;86;20190;-87
2022/06/16 08:20:14;;;;;;;;;;;;;;;30.76;47.03;100142.16;2674661;87;20161;-87
2022/06/16 08:24:15;;;;;;;;;;;;;;;30.90;45.41;100145.80;2681701;87;20132;-87
2022/06/16 08:28:18;;;;;;;;;;;;;;;30.94;45.49;100144.72;2672391;86;20154;-88
2022/06/16 08:32:21;;;;;;;;;;;;;;;31.00;46.05;100145.02;2672607;86;20110;-86
2022/06/16 08:36:22;;;;;;;;;;;;;;;30.91;43.75;100141.42;2690467;85;20142;-86
2022/06/16 08:40:24;;;;;;;;;;;;;;;30.70;44.06;100139.08;2646355;86;20088;-85
2022/06/16 08:44:40;;;;;;;;;;;;;;;30.52;45.97;100143.59;2674997;86;20077;-85
2022/06/16 08:49:00;;;;;;;;;;;;;;;30.31;43.54;100148.38;2662853;86;20194;-86
2022/06/16 08:53:40;;;;;;;;;;;;;;;30.19;42.28;100156.78;2691838;86;20610;-84
2022/06/16 08:57:45;;;;;;;;;;;;;;;30.66;43.66;100142.08;2662644;86;20416;-85
2022/06/16 09:01:50;;;;;;;;;;;;;;;31.15;43.47;100145.64;2676217;86;20166;-85
2022/06/16 09:06:01;;;;;;;;;;;;;;;31.24;42.02;100148.73;2692596;86;20121;-85
2022/06/16 09:10:14;;;;;;;;;;;;;;;31.21;43.11;100148.74;2696569;86;20112;-85
2022/06/16 09:15:10;;;;;;;;;;;;;;;30.94;43.47;100147.47;2626122;88;20154;-86
2022/06/16 09:18:41;;;;;;;;;;;;;;;30.87;43.06;100138.94;2550801;91;20154;-85
2022/06/16 09:22:45;;;;;;;;;;;;;;;30.66;42.81;100142.61;2621042;88;20116;-85
2022/06/16 09:27:16;;;;;;;;;;;;;;;30.49;42.78;100147.14;2585277;90;20105;-89
2022/06/16 09:31:42;;;;;;;;;;;;;;;30.65;42.43;100147.30;2588026;89;20145;-86
2022/06/16 09:35:51;;;;;;;;;;;;;;;30.75;42.75;100141.05;2624801;88;28239;-85
2022/06/16 09:39:55;;;;;;;;;;;;;;;30.75;43.85;100142.41;2625408;89;20134;-85
2022/06/16 09:43:59;;;;;;;;;;;;;;;30.81;43.62;100148.21;2591605;89;20128;-89
2022/06/16 09:48:13;;;;;;;;;;;;;;;30.82;43.04;100149.05;2589355;89;20115;-85
2022/06/16 09:52:18;;;;;;;;;;;;;;;31.03;42.23;100146.70;2592496;89;20154;-84
2022/06/16 09:56:44;;;;;;;;;;;;;;;31.29;42.62;100148.78;2646168;88;20131;-85
2022/06/16 10:00:45;;;;;;;;;;;;;;;31.51;43.53;100148.57;2617435;88;20158;-86
2022/06/16 10:04:51;;;;;;;;;;;;;;;31.48;42.61;100148.58;2570743;90;20174;-86
2022/06/16 10:09:05;;;;;;;;;;;;;;;31.48;42.64;100146.37;2580182;89;20138;-87
2022/06/16 10:13:17;;;;;;;;;;;;;;;31.65;42.95;100144.79;2701220;86;20150;-86
2022/06/16 10:17:21;;;;;;;;;;;;;;;31.62;42.55;100148.05;2697515;85;20147;-85
2022/06/16 10:21:22;;;;;;;;;;;;;;;31.63;44.57;100154.67;2672041;85;20165;-90
2022/06/16 10:25:28;;;;;;;;;;;;;;;31.64;43.27;100155.48;2671319;86;20114;-88
2022/06/16 10:29:31;;;;;;;;;;;;;;;31.82;43.89;100158.32;2669783;87;20159;-83
2022/06/16 10:33:35;;;;;;;;;;;;;;;31.90;41.92;100161.09;2669290;86;20563;-84
2022/06/16 10:37:39;;;;;;;;;;;;;;;31.73;42.76;100156.62;2673684;86;20126;-84
2022/06/16 10:41:46;;;;;;;;;;;;;;;31.40;43.14;100164.20;2700948;86;20141;-85
2022/06/16 10:45:56;;;;;;;;;;;;;;;30.87;43.74;100165.02;2675887;86;20675;-84
2022/06/16 10:49:58;;;;;;;;;;;;;;;30.14;43.74;100173.73;2644280;86;20465;-83
2022/06/16 10:54:11;;;;;;;;;;;;;;;29.21;54.10;100174.81;2675564;87;20150;-85
2022/06/16 10:58:23;;;;;;;;;;;;;;;28.34;58.25;100189.61;2657603;87;20108;-85
2022/06/16 11:02:30;;;;;;;;;;;;;;;27.73;55.93;100202.40;2665943;87;20147;-88
2022/06/16 11:06:32;;;;;;;;;;;;;;;27.46;53.34;100204.80;2659552;87;20132;-86
2022/06/16 11:10:36;;;;;;;;;;;;;;;27.45;55.83;100210.79;2648701;87;20135;-89
2022/06/16 11:14:46;;;;;;;;;;;;;;;27.28;56.47;100231.19;2672260;87;20120;-87
2022/06/16 11:18:50;;;;;;;;;;;;;;;27.18;54.90;100230.42;2668988;87;20161;-87
2022/06/16 11:22:51;;;;;;;;;;;;;;;27.09;52.11;100227.22;2566958;89;20109;-86
2022/06/16 11:26:55;;;;;;;;;;;;;;;27.19;53.40;100223.89;2646886;88;20110;-87
2022/06/16 11:30:59;;;;;;;;;;;;;;;27.50;54.27;100227.28;2583279;89;20302;-88
2022/06/16 11:35:00;;;;;;;;;;;;;;;28.03;53.34;100214.98;2657245;87;20520;-86
2022/06/16 11:39:23;;;;;;;;;;;;;;;28.57;54.08;100205.58;2703597;86;20128;-87
2022/06/16 11:43:44;;;;;;;;;;;;;;;29.04;55.04;100196.22;2690020;85;20142;-88
2022/06/16 11:47:58;;;;;;;;;;;;;;;29.12;55.20;100188.11;2673865;86;20133;-92
2022/06/16 11:52:19;;;;;;;;;;;;;;;29.35;50.76;100174.70;2683197;85;20120;-86
2022/06/16 11:56:41;;;;;;;;;;;;;;;29.61;52.08;100176.45;2678198;86;20105;-88
2022/06/16 12:09:24;;;;;;;;;;;;;;;29.93;49.09;100143.34;2684906;86;20126;-89
2022/06/16 12:13:35;;;;;;;;;;;;;;;29.97;47.83;100130.77;2658016;86;20147;-87
2022/06/16 12:17:40;;;;;;;;;;;;;;;30.08;48.34;100139.13;2679513;86;20182;-93
2022/06/16 12:21:57;;;;;;;;;;;;;;;30.26;48.83;100129.67;2655712;87;20432;-93
2022/06/16 12:26:01;;;;;;;;;;;;;;;30.42;45.77;100121.86;2611011;88;20169;-90
2022/06/16 12:30:12;;;;;;;;;;;;;;;30.58;44.28;100132.95;2596581;89;20137;-91
2022/06/16 12:34:17;;;;;;;;;;;;;;;30.64;43.83;100134.09;2599647;87;20112;-92
2022/06/16 12:38:37;;;;;;;;;;;;;;;30.87;45.65;100138.09;2618056;89;20116;-91
2022/06/16 12:42:42;;;;;;;;;;;;;;;30.94;44.34;100132.37;2617762;88;20507;-88
2022/06/16 12:46:52;;;;;;;;;;;;;;;30.72;43.95;100136.09;2624847;88;20129;-88
2022/06/16 12:50:59;;;;;;;;;;;;;;;30.33;44.51;100142.62;2611509;88;20163;-86
2022/06/16 12:55:04;;;;;;;;;;;;;;;29.95;45.29;100145.28;2611089;88;20347;-90
2022/06/16 12:59:15;;;;;;;;;;;;;;;29.56;44.78;100147.59;2624800;87;20148;-86
2022/06/16 13:03:26;;;;;;;;;;;;;;;29.03;45.86;100152.65;2660096;86;20104;-87
2022/06/16 13:07:29;;;;;;;;;;;;;;;28.34;45.30;100146.38;2676883;87;20127;-86
2022/06/16 13:11:33;;;;;;;;;;;;;;;27.86;44.02;100153.98;2678631;86;20187;-87
2022/06/16 13:15:38;;;;;;;;;;;;;;;27.55;43.16;100158.31;2673351;87;20116;-87
2022/06/16 13:19:42;;;;;;;;;;;;;;;27.36;41.62;100146.70;2680632;87;20128;-87
2022/06/16 13:23:46;;;;;;;;;;;;;;;27.57;42.06;100148.52;2679745;86;20065;-87
2022/06/16 13:27:55;;;;;;;;;;;;;;;27.87;41.39;100154.27;2666288;87;20105;-87
2022/06/16 13:32:00;;;;;;;;;;;;;;;28.01;43.66;100152.09;2673556;86;20123;-86
2022/06/16 13:36:14;;;;;;;;;;;;;;;27.93;43.29;100171.08;2595942;88;20134;-86
2022/06/16 13:40:27;;;;;;;;;;;;;;;27.76;44.15;100165.02;2627969;89;20126;-87
2022/06/16 13:44:29;;;;;;;;;;;;;;;27.43;46.02;100163.78;2665135;87;20109;-87
2022/06/16 13:48:50;;;;;;;;;;;;;;;27.00;46.20;100178.12;2665606;87;20260;-86
2022/06/16 13:53:03;;;;;;;;;;;;;;;26.13;48.69;100193.11;2660636;87;20112;-86
2022/06/16 13:57:20;;;;;;;;;;;;;;;24.20;58.66;100229.91;2672381;87;20145;-85
2022/06/16 14:01:29;;;;;;;;;;;;;;;22.85;61.00;100248.38;2654618;87;20148;-84
2022/06/16 14:05:33;;;;;;;;;;;;;;;22.09;66.24;100256.54;2670212;87;20150;-86
2022/06/16 14:09:54;;;;;;;;;;;;;;;21.94;63.26;100216.08;2685168;87;20108;-85
2022/06/16 14:14:18;;;;;;;;;;;;;;;22.07;57.21;100170.59;2668504;85;20221;-85
2022/06/16 14:18:23;;;;;;;;;;;;;;;22.40;60.96;100158.98;2668779;86;20112;-85
2022/06/16 14:22:25;;;;;;;;;;;;;;;22.83;55.56;100148.25;2676642;87;20140;-84
2022/06/16 14:26:28;;;;;;;;;;;;;;;23.61;66.24;100157.17;2689959;86;20404;-86
2022/06/16 14:30:33;;;;;;;;;;;;;;;24.48;67.18;100151.23;2682783;87;20133;-84
2022/06/16 14:34:43;;;;;;;;;;;;;;;25.20;56.09;100154.03;2669499;87;20557;-86
2022/06/16 14:38:48;;;;;;;;;;;;;;;25.72;52.13;100150.07;2694953;86;20119;-86
2022/06/16 14:42:50;;;;;;;;;;;;;;;26.06;56.47;100162.70;2692806;86;20132;-85
2022/06/16 14:47:06;;;;;;;;;;;;;;;26.11;55.73;100166.11;2672849;87;20116;-86
2022/06/16 14:51:10;;;;;;;;;;;;;;;26.05;58.14;100167.05;2668701;86;20108;-83
2022/06/16 14:55:15;;;;;;;;;;;;;;;26.03;56.59;100145.47;2689162;86;20108;-86
2022/06/16 14:59:18;;;;;;;;;;;;;;;26.04;56.99;100144.40;2654699;87;20390;-86
2022/06/16 15:03:22;;;;;;;;;;;;;;;26.09;58.52;100147.80;2670607;86;20159;-84
2022/06/16 15:07:24;;;;;;;;;;;;;;;26.29;57.88;100138.52;2683659;86;20074;-86
2022/06/16 15:11:31;;;;;;;;;;;;;;;26.34;56.45;100142.72;2676137;86;20195;-86
2022/06/16 15:15:33;;;;;;;;;;;;;;;26.24;55.58;100150.11;2669163;87;20446;-86
2022/06/16 15:19:38;;;;;;;;;;;;;;;26.06;54.90;100155.89;2639338;86;20130;-86
2022/06/16 15:23:40;;;;;;;;;;;;;;;26.06;57.07;100155.89;2659015;86;20151;-86
2022/06/16 15:27:44;;;;;;;;;;;;;;;26.13;56.10;100154.95;2666612;87;20211;-86
2022/06/16 15:31:54;;;;;;;;;;;;;;;26.20;54.31;100154.38;2694590;86;20151;-86
2022/06/16 15:36:16;;;;;;;;;;;;;;;26.26;55.00;100150.70;2679747;86;20134;-85
2022/06/16 15:40:18;;;;;;;;;;;;;;;26.35;55.33;100138.41;2643775;88;20125;-84
2022/06/16 15:44:22;;;;;;;;;;;;;;;26.47;56.04;100135.70;2676325;87;20085;-85
2022/06/16 15:48:25;;;;;;;;;;;;;;;26.63;56.03;100133.34;2664816;86;20115;-86
2022/06/16 15:52:37;;;;;;;;;;;;;;;26.85;53.89;100141.78;2696620;86;20165;-84
2022/06/16 15:56:38;;;;;;;;;;;;;;;27.14;52.27;100151.44;2661469;87;20101;-86
2022/06/16 16:00:41;;;;;;;;;;;;;;;27.46;52.37;100149.63;2653576;87;20128;-86
2022/06/16 16:04:43;;;;;;;;;;;;;;;27.77;52.94;100158.48;2678267;86;20111;-86
2022/06/16 16:08:45;;;;;;;;;;;;;;;27.73;55.03;100158.68;2700694;86;20098;-86
2022/06/16 16:12:59;;;;;;;;;;;;;;;27.68;52.89;100167.31;2689367;86;20141;-86
2022/06/16 16:17:09;;;;;;;;;;;;;;;27.55;55.87;100175.25;2673121;86;20135;-86
2022/06/16 16:21:06;;;;;;;;;;;;;;;27.59;56.65;100180.52;2677904;86;20240;-87
2022/06/16 16:25:09;;;;;;;;;;;;;;;27.70;55.25;100182.36;2693533;86;20134;-83
2022/06/16 16:29:11;;;;;;;;;;;;;;;27.69;57.07;100183.44;2652896;87;20142;-85
2022/06/16 16:33:33;;;;;;;;;;;;;;;27.65;58.61;100194.56;2661987;87;20174;-85
2022/06/16 16:37:36;;;;;;;;;;;;;;;27.53;59.76;100201.98;2674127;86;20118;-86
2022/06/16 16:45:57;;;;;;;;;;;;;;;26.89;54.85;100207.08;2641653;87;20220;-86
2022/06/16 16:49:59;;;;;;;;;;;;;;;26.52;55.11;100216.27;2688958;86;20120;-86
2022/06/16 16:54:04;;;;;;;;;;;;;;;26.27;56.09;100215.61;2621840;87;20194;-87
2022/06/16 16:58:06;;;;;;;;;;;;;;;26.08;56.24;100230.08;2687309;86;20640;-85
2022/06/16 17:02:07;;;;;;;;;;;;;;;25.93;57.06;100231.00;2637128;87;20131;-85
2022/06/16 17:06:08;;;;;;;;;;;;;;;25.89;56.75;100236.62;2680058;86;20114;-86
2022/06/16 17:10:13;;;;;;;;;;;;;;;25.86;56.34;100239.80;2646977;87;20109;-86
2022/06/16 17:14:16;;;;;;;;;;;;;;;25.85;57.58;100236.27;2694325;86;20147;-86
2022/06/16 17:18:17;;;;;;;;;;;;;;;25.85;56.58;100241.72;2659076;87;20128;-85
2022/06/16 17:22:18;;;;;;;;;;;;;;;25.86;56.98;100254.27;2665339;87;20382;-86
2022/06/16 17:26:22;;;;;;;;;;;;;;;25.84;57.48;100243.29;2670861;86;20114;-84
2022/06/16 17:30:25;;;;;;;;;;;;;;;25.78;57.42;100245.88;2690983;86;20688;-83
2022/06/16 17:34:30;;;;;;;;;;;;;;;25.79;58.43;100251.63;2639650;88;20108;-84
2022/06/16 17:38:34;;;;;;;;;;;;;;;25.83;58.42;100265.60;2666221;86;20144;-85
2022/06/16 17:42:35;;;;;;;;;;;;;;;25.81;56.86;100267.21;2665363;86;20357;-88
2022/06/16 17:46:37;;;;;;;;;;;;;;;25.85;57.55;100267.59;2679886;86;20112;-87
2022/06/16 17:50:39;;;;;;;;;;;;;;;25.88;56.88;100275.30;2680962;86;20140;-87
2022/06/16 18:03:19;;;;;;;;;;;;;;;25.71;56.82;100287.87;2678633;86;20106;-86
2022/06/16 18:07:22;;;;;;;;;;;;;;;25.59;58.64;100287.24;2670345;87;20872;-85
2022/06/16 18:11:24;;;;;;;;;;;;;;;25.41;55.55;100288.03;2675310;86;20109;-82
2022/06/16 18:15:25;;;;;;;;;;;;;;;25.22;53.59;100294.80;2698209;86;20295;-81
2022/06/16 18:19:26;;;;;;;;;;;;;;;25.09;53.48;100294.91;2703831;86;20115;-84
2022/06/16 18:23:28;;;;;;;;;;;;;;;24.95;53.87;100303.71;2660176;87;20161;-85
2022/06/16 18:27:31;;;;;;;;;;;;;;;24.84;53.65;100301.17;2655880;87;20117;-81
2022/06/16 18:31:33;;;;;;;;;;;;;;;24.71;53.58;100306.16;2680538;87;20126;-83
2022/06/16 18:35:34;;;;;;;;;;;;;;;24.57;53.69;100312.21;2659533;86;20102;-86
2022/06/16 18:39:36;;;;;;;;;;;;;;;24.45;54.39;100315.30;2652686;88;20148;-85
2022/06/16 18:43:40;;;;;;;;;;;;;;;24.31;54.71;100328.13;2621436;87;20113;-83
2022/06/16 18:47:43;;;;;;;;;;;;;;;24.16;55.26;100336.53;2680528;86;20597;-86
2022/06/16 18:51:46;;;;;;;;;;;;;;;24.01;55.56;100340.84;2695753;86;20720;-87
2022/06/16 18:55:48;;;;;;;;;;;;;;;23.85;55.84;100348.94;2687486;86;20116;-85
2022/06/16 18:59:49;;;;;;;;;;;;;;;23.67;56.49;100354.50;2684505;86;20419;-87
2022/06/16 19:03:51;;;;;;;;;;;;;;;23.47;56.89;100362.14;2672116;87;20139;-85
2022/06/16 19:07:53;;;;;;;;;;;;;;;23.30;57.28;100370.39;2645211;86;20126;-84
2022/06/16 19:16:15;;;;;;;;;;;;;;;22.95;57.60;100392.53;2681880;86;20140;-87
2022/06/16 19:20:20;;;;;;;;;;;;;;;22.76;58.22;100398.73;2618783;87;20137;-86
2022/06/16 19:24:24;;;;;;;;;;;;;;;22.59;58.58;100408.58;2668793;86;20123;-84
2022/06/16 19:28:25;;;;;;;;;;;;;;;22.39;59.25;100409.30;2673518;87;20132;-85
2022/06/16 19:32:27;;;;;;;;;;;;;;;22.25;59.20;100428.72;2650773;87;20159;-86
2022/06/16 19:36:28;;;;;;;;;;;;;;;22.09;59.48;100433.95;2655604;87;20139;-84
2022/06/16 19:40:30;;;;;;;;;;;;;;;21.91;59.65;100444.44;2679083;86;20167;-87
2022/06/16 19:53:16;;;;;;;;;;;;;;;21.51;60.89;100459.79;2695321;86;20123;-87
2022/06/16 19:57:17;;;;;;;;;;;;;;;21.33;61.37;100464.31;2669043;87;20113;-86
2022/06/16 20:01:18;;;;;;;;;;;;;;;21.15;62.19;100473.70;2671381;86;20156;-87
2022/06/16 20:05:21;;;;;;;;;;;;;;;20.98;62.70;100472.57;2655159;87;20153;-87
2022/06/16 20:09:23;;;;;;;;;;;;;;;20.82;63.19;100484.95;2654469;87;20258;-89
2022/06/16 20:13:26;;;;;;;;;;;;;;;20.69;63.86;100493.70;2657596;87;20450;-86
2022/06/16 20:17:27;;;;;;;;;;;;;;;20.57;64.54;100506.02;2650640;87;20168;-87
2022/06/16 20:21:28;;;;;;;;;;;;;;;20.47;64.25;100504.95;2618213;87;20158;-85
2022/06/16 20:25:29;;;;;;;;;;;;;;;20.40;64.52;100515.66;2634656;88;20131;-88
2022/06/16 20:29:31;;;;;;;;;;;;;;;20.37;64.55;100526.84;2615592;88;20770;-87
2022/06/16 20:33:33;;;;;;;;;;;;;;;20.31;64.87;100530.25;2601552;89;20425;-86
2022/06/16 20:37:34;;;;;;;;;;;;;;;20.25;65.07;100531.85;2663345;86;20150;-88
2022/06/16 20:45:57;;;;;;;;;;;;;;;20.05;65.99;100543.17;2646203;87;20546;-88
2022/06/16 20:49:59;;;;;;;;;;;;;;;19.87;66.43;100559.63;2663271;85;20151;-87
2022/06/16 20:54:01;;;;;;;;;;;;;;;19.72;66.77;100558.73;2661055;86;20157;-86
2022/06/16 21:02:22;;;;;;;;;;;;;;;19.36;67.48;100569.09;2688129;87;20107;-88
2022/06/16 21:06:23;;;;;;;;;;;;;;;19.18;67.82;100577.94;2684037;86;20132;-88
2022/06/16 21:10:27;;;;;;;;;;;;;;;19.07;67.85;100583.22;2666352;87;20121;-86
2022/06/16 21:14:29;;;;;;;;;;;;;;;18.93;68.28;100582.88;2647334;87;20170;-85
2022/06/16 21:18:31;;;;;;;;;;;;;;;18.85;68.33;100590.98;2689252;85;20111;-85
2022/06/16 21:22:36;;;;;;;;;;;;;;;18.76;68.56;100590.68;2675565;86;20164;-87
2022/06/16 21:26:37;;;;;;;;;;;;;;;18.67;68.59;100596.09;2687010;85;20134;-85
2022/06/16 21:30:39;;;;;;;;;;;;;;;18.62;68.63;100603.83;2673695;86;20148;-86
2022/06/16 21:34:42;;;;;;;;;;;;;;;18.59;68.81;100603.36;2677989;87;20131;-88
2022/06/16 21:38:43;;;;;;;;;;;;;;;18.55;68.92;100610.92;2692651;86;20128;-88
2022/06/16 21:42:44;;;;;;;;;;;;;;;18.48;69.69;100603.20;2697979;86;20829;-88
2022/06/16 21:46:45;;;;;;;;;;;;;;;18.38;69.81;100608.25;2663081;87;20122;-86
2022/06/16 21:50:55;;;;;;;;;;;;;;;18.34;70.24;100614.98;2667658;87;20155;-88
2022/06/16 21:54:56;;;;;;;;;;;;;;;18.33;69.94;100617.83;2699361;86;20103;-87
2022/06/16 21:58:57;;;;;;;;;;;;;;;18.32;70.12;100617.02;2687125;86;20423;-88